sensor_id;sensor_type;location;lat;lon;timestamp;P1;durP1;ratioP1;P2;durP2;ratioP2
80623;SDS011;70269;44.768;9.600;2023-12-28T00:03:05;7.93;;;4.60;;
80623;SDS011;70269;44.768;9.600;2023-12-28T00:05:30;8.20;;;4.20;;
80623;SDS011;70269;44.768;9.600;2023-12-28T00:07:56;7.85;;;4.57;;
80623;SDS011;70269;44.768;9.600;2023-12-28T00:10:26;7.78;;;3.95;;
80623;SDS011;70269;44.768;9.600;2023-12-28T00:12:53;5.63;;;3.05;;
80623;SDS011;70269;44.768;9.600;2023-12-28T00:15:19;6.85;;;3.10;;
80623;SDS011;70269;44.768;9.600;2023-12-28T00:17:45;5.63;;;2.78;;
80623;SDS011;70269;44.768;9.600;2023-12-28T00:20:11;4.75;;;2.97;;
80623;SDS011;70269;44.768;9.600;2023-12-28T00:22:37;9.88;;;4.68;;
80623;SDS011;70269;44.768;9.600;2023-12-28T00:25:06;9.00;;;5.13;;
80623;SDS011;70269;44.768;9.600;2023-12-28T00:27:32;14.45;;;7.18;;
80623;SDS011;70269;44.768;9.600;2023-12-28T00:30:04;14.32;;;6.93;;
80623;SDS011;70269;44.768;9.600;2023-12-28T00:32:30;15.07;;;6.55;;
80623;SDS011;70269;44.768;9.600;2023-12-28T00:34:56;13.57;;;7.13;;
80623;SDS011;70269;44.768;9.600;2023-12-28T00:37:22;13.82;;;8.55;;
80623;SDS011;70269;44.768;9.600;2023-12-28T00:39:48;14.30;;;7.35;;
80623;SDS011;70269;44.768;9.600;2023-12-28T00:42:17;14.73;;;7.30;;
80623;SDS011;70269;44.768;9.600;2023-12-28T00:44:44;14.15;;;7.70;;
80623;SDS011;70269;44.768;9.600;2023-12-28T00:47:10;15.50;;;7.60;;
80623;SDS011;70269;44.768;9.600;2023-12-28T00:49:36;12.32;;;7.43;;
80623;SDS011;70269;44.768;9.600;2023-12-28T00:52:02;17.42;;;8.13;;
80623;SDS011;70269;44.768;9.600;2023-12-28T00:54:29;14.68;;;7.57;;
80623;SDS011;70269;44.768;9.600;2023-12-28T00:56:55;17.35;;;8.32;;
80623;SDS011;70269;44.768;9.600;2023-12-28T00:59:20;12.50;;;7.72;;
80623;SDS011;70269;44.768;9.600;2023-12-28T01:01:46;12.82;;;7.20;;
80623;SDS011;70269;44.768;9.600;2023-12-28T01:04:11;13.65;;;7.50;;
80623;SDS011;70269;44.768;9.600;2023-12-28T01:06:37;16.02;;;8.45;;
80623;SDS011;70269;44.768;9.600;2023-12-28T01:09:03;16.08;;;8.40;;
80623;SDS011;70269;44.768;9.600;2023-12-28T01:11:28;17.27;;;7.43;;
80623;SDS011;70269;44.768;9.600;2023-12-28T01:13:54;14.52;;;7.90;;
80623;SDS011;70269;44.768;9.600;2023-12-28T01:16:19;15.07;;;8.75;;
80623;SDS011;70269;44.768;9.600;2023-12-28T01:18:46;15.27;;;7.70;;
80623;SDS011;70269;44.768;9.600;2023-12-28T01:21:11;30.80;;;14.52;;
80623;SDS011;70269;44.768;9.600;2023-12-28T01:23:37;18.67;;;9.65;;
80623;SDS011;70269;44.768;9.600;2023-12-28T01:26:03;20.02;;;10.77;;
80623;SDS011;70269;44.768;9.600;2023-12-28T01:28:28;22.88;;;11.80;;
80623;SDS011;70269;44.768;9.600;2023-12-28T01:30:54;17.38;;;8.70;;
80623;SDS011;70269;44.768;9.600;2023-12-28T01:33:20;19.98;;;10.48;;
80623;SDS011;70269;44.768;9.600;2023-12-28T01:35:45;20.85;;;10.80;;
80623;SDS011;70269;44.768;9.600;2023-12-28T01:38:11;13.95;;;8.32;;
80623;SDS011;70269;44.768;9.600;2023-12-28T01:40:36;16.88;;;8.65;;
80623;SDS011;70269;44.768;9.600;2023-12-28T01:43:02;15.48;;;8.43;;
80623;SDS011;70269;44.768;9.600;2023-12-28T01:45:28;14.00;;;7.57;;
80623;SDS011;70269;44.768;9.600;2023-12-28T01:47:54;16.58;;;7.70;;
80623;SDS011;70269;44.768;9.600;2023-12-28T01:52:49;12.85;;;6.97;;
80623;SDS011;70269;44.768;9.600;2023-12-28T01:55:15;11.85;;;6.82;;
80623;SDS011;70269;44.768;9.600;2023-12-28T01:57:42;16.70;;;7.95;;
80623;SDS011;70269;44.768;9.600;2023-12-28T02:00:08;11.65;;;7.32;;
80623;SDS011;70269;44.768;9.600;2023-12-28T02:02:40;10.57;;;7.15;;
80623;SDS011;70269;44.768;9.600;2023-12-28T02:05:07;12.07;;;7.05;;
80623;SDS011;70269;44.768;9.600;2023-12-28T02:07:34;13.80;;;6.75;;
80623;SDS011;70269;44.768;9.600;2023-12-28T02:10:01;15.15;;;6.72;;
80623;SDS011;70269;44.768;9.600;2023-12-28T02:12:27;10.50;;;6.45;;
80623;SDS011;70269;44.768;9.600;2023-12-28T02:14:53;10.35;;;6.10;;
80623;SDS011;70269;44.768;9.600;2023-12-28T02:17:20;11.98;;;6.82;;
80623;SDS011;70269;44.768;9.600;2023-12-28T02:19:54;11.85;;;6.82;;
80623;SDS011;70269;44.768;9.600;2023-12-28T02:22:26;13.75;;;6.78;;
80623;SDS011;70269;44.768;9.600;2023-12-28T02:27:27;14.60;;;6.40;;
80623;SDS011;70269;44.768;9.600;2023-12-28T02:29:52;14.25;;;6.25;;
80623;SDS011;70269;44.768;9.600;2023-12-28T02:32:21;14.27;;;6.80;;
80623;SDS011;70269;44.768;9.600;2023-12-28T02:34:55;10.38;;;6.07;;
80623;SDS011;70269;44.768;9.600;2023-12-28T02:37:25;11.00;;;6.57;;
80623;SDS011;70269;44.768;9.600;2023-12-28T02:39:52;10.95;;;6.63;;
80623;SDS011;70269;44.768;9.600;2023-12-28T02:42:19;12.30;;;7.15;;
80623;SDS011;70269;44.768;9.600;2023-12-28T02:44:45;10.23;;;5.38;;
80623;SDS011;70269;44.768;9.600;2023-12-28T02:47:10;10.50;;;5.97;;
80623;SDS011;70269;44.768;9.600;2023-12-28T02:49:36;10.10;;;5.47;;
80623;SDS011;70269;44.768;9.600;2023-12-28T02:52:01;10.82;;;5.97;;
80623;SDS011;70269;44.768;9.600;2023-12-28T02:54:27;9.07;;;5.28;;
80623;SDS011;70269;44.768;9.600;2023-12-28T02:56:53;9.68;;;5.30;;
80623;SDS011;70269;44.768;9.600;2023-12-28T02:59:19;11.65;;;5.45;;
80623;SDS011;70269;44.768;9.600;2023-12-28T03:01:44;8.43;;;4.82;;
80623;SDS011;70269;44.768;9.600;2023-12-28T03:04:10;8.73;;;5.20;;
80623;SDS011;70269;44.768;9.600;2023-12-28T03:06:36;9.35;;;4.72;;
80623;SDS011;70269;44.768;9.600;2023-12-28T03:09:03;9.88;;;5.40;;
80623;SDS011;70269;44.768;9.600;2023-12-28T03:14:33;8.85;;;4.78;;
80623;SDS011;70269;44.768;9.600;2023-12-28T03:16:58;10.45;;;5.05;;
80623;SDS011;70269;44.768;9.600;2023-12-28T03:19:24;9.68;;;5.03;;
80623;SDS011;70269;44.768;9.600;2023-12-28T03:21:49;8.57;;;4.60;;
80623;SDS011;70269;44.768;9.600;2023-12-28T03:24:15;9.65;;;4.82;;
80623;SDS011;70269;44.768;9.600;2023-12-28T03:26:40;9.98;;;4.80;;
80623;SDS011;70269;44.768;9.600;2023-12-28T03:29:07;7.88;;;4.10;;
80623;SDS011;70269;44.768;9.600;2023-12-28T03:31:33;7.30;;;4.30;;
80623;SDS011;70269;44.768;9.600;2023-12-28T03:33:59;6.60;;;4.25;;
80623;SDS011;70269;44.768;9.600;2023-12-28T03:36:25;9.15;;;4.15;;
80623;SDS011;70269;44.768;9.600;2023-12-28T03:38:52;7.18;;;3.95;;
80623;SDS011;70269;44.768;9.600;2023-12-28T03:41:20;6.53;;;3.58;;
80623;SDS011;70269;44.768;9.600;2023-12-28T03:43:46;6.57;;;3.45;;
80623;SDS011;70269;44.768;9.600;2023-12-28T03:46:13;8.88;;;3.95;;
80623;SDS011;70269;44.768;9.600;2023-12-28T03:48:39;7.75;;;3.30;;
80623;SDS011;70269;44.768;9.600;2023-12-28T03:51:05;6.18;;;3.10;;
80623;SDS011;70269;44.768;9.600;2023-12-28T03:53:31;8.45;;;3.25;;
80623;SDS011;70269;44.768;9.600;2023-12-28T03:56:00;8.18;;;3.15;;
80623;SDS011;70269;44.768;9.600;2023-12-28T04:00:52;6.65;;;3.42;;
80623;SDS011;70269;44.768;9.600;2023-12-28T04:03:18;7.68;;;3.13;;
80623;SDS011;70269;44.768;9.600;2023-12-28T04:05:43;5.55;;;2.83;;
80623;SDS011;70269;44.768;9.600;2023-12-28T04:08:09;8.07;;;3.05;;
80623;SDS011;70269;44.768;9.600;2023-12-28T04:10:35;4.30;;;2.13;;
80623;SDS011;70269;44.768;9.600;2023-12-28T04:13:04;6.68;;;2.88;;
80623;SDS011;70269;44.768;9.600;2023-12-28T04:15:30;7.53;;;2.97;;
80623;SDS011;70269;44.768;9.600;2023-12-28T04:17:56;5.50;;;2.45;;
80623;SDS011;70269;44.768;9.600;2023-12-28T04:20:22;5.88;;;2.95;;
80623;SDS011;70269;44.768;9.600;2023-12-28T04:22:49;4.13;;;1.95;;
80623;SDS011;70269;44.768;9.600;2023-12-28T04:25:14;5.53;;;2.50;;
80623;SDS011;70269;44.768;9.600;2023-12-28T04:27:43;4.95;;;2.20;;
80623;SDS011;70269;44.768;9.600;2023-12-28T04:30:11;6.65;;;2.55;;
80623;SDS011;70269;44.768;9.600;2023-12-28T04:35:03;5.60;;;2.67;;
80623;SDS011;70269;44.768;9.600;2023-12-28T04:37:28;4.32;;;2.13;;
80623;SDS011;70269;44.768;9.600;2023-12-28T04:39:56;3.95;;;2.00;;
80623;SDS011;70269;44.768;9.600;2023-12-28T04:42:22;4.00;;;1.85;;
80623;SDS011;70269;44.768;9.600;2023-12-28T04:44:48;4.40;;;1.98;;
80623;SDS011;70269;44.768;9.600;2023-12-28T04:47:13;5.63;;;3.25;;
80623;SDS011;70269;44.768;9.600;2023-12-28T04:49:39;6.55;;;2.50;;
80623;SDS011;70269;44.768;9.600;2023-12-28T04:52:05;6.28;;;2.75;;
80623;SDS011;70269;44.768;9.600;2023-12-28T04:54:30;7.18;;;2.40;;
80623;SDS011;70269;44.768;9.600;2023-12-28T04:56:58;6.10;;;2.58;;
80623;SDS011;70269;44.768;9.600;2023-12-28T04:59:24;5.25;;;2.53;;
80623;SDS011;70269;44.768;9.600;2023-12-28T05:01:49;4.85;;;2.47;;
80623;SDS011;70269;44.768;9.600;2023-12-28T05:04:15;5.50;;;2.75;;
80623;SDS011;70269;44.768;9.600;2023-12-28T05:06:42;4.75;;;2.28;;
80623;SDS011;70269;44.768;9.600;2023-12-28T05:09:07;5.00;;;2.40;;
80623;SDS011;70269;44.768;9.600;2023-12-28T05:11:33;8.10;;;2.40;;
80623;SDS011;70269;44.768;9.600;2023-12-28T05:13:58;5.05;;;2.38;;
80623;SDS011;70269;44.768;9.600;2023-12-28T05:16:24;7.05;;;2.58;;
80623;SDS011;70269;44.768;9.600;2023-12-28T05:18:50;4.70;;;2.40;;
80623;SDS011;70269;44.768;9.600;2023-12-28T05:21:15;7.45;;;2.80;;
80623;SDS011;70269;44.768;9.600;2023-12-28T05:23:41;6.22;;;2.30;;
80623;SDS011;70269;44.768;9.600;2023-12-28T05:26:06;5.85;;;2.30;;
80623;SDS011;70269;44.768;9.600;2023-12-28T05:28:32;6.85;;;2.50;;
80623;SDS011;70269;44.768;9.600;2023-12-28T05:30:58;4.53;;;1.98;;
80623;SDS011;70269;44.768;9.600;2023-12-28T05:33:26;5.00;;;2.45;;
80623;SDS011;70269;44.768;9.600;2023-12-28T05:35:52;5.07;;;2.13;;
80623;SDS011;70269;44.768;9.600;2023-12-28T05:38:18;4.38;;;2.10;;
80623;SDS011;70269;44.768;9.600;2023-12-28T05:40:44;4.25;;;2.08;;
80623;SDS011;70269;44.768;9.600;2023-12-28T05:43:12;4.55;;;2.28;;
80623;SDS011;70269;44.768;9.600;2023-12-28T05:45:37;5.15;;;2.40;;
80623;SDS011;70269;44.768;9.600;2023-12-28T05:48:03;5.90;;;2.20;;
80623;SDS011;70269;44.768;9.600;2023-12-28T05:50:29;10.10;;;4.65;;
80623;SDS011;70269;44.768;9.600;2023-12-28T05:52:54;9.95;;;3.65;;
80623;SDS011;70269;44.768;9.600;2023-12-28T05:55:20;7.93;;;3.58;;
80623;SDS011;70269;44.768;9.600;2023-12-28T05:57:46;6.63;;;3.40;;
80623;SDS011;70269;44.768;9.600;2023-12-28T06:00:13;6.30;;;2.72;;
80623;SDS011;70269;44.768;9.600;2023-12-28T06:02:40;5.65;;;2.55;;
80623;SDS011;70269;44.768;9.600;2023-12-28T06:05:06;4.97;;;2.55;;
80623;SDS011;70269;44.768;9.600;2023-12-28T06:07:32;5.95;;;2.88;;
80623;SDS011;70269;44.768;9.600;2023-12-28T06:09:57;4.35;;;2.17;;
80623;SDS011;70269;44.768;9.600;2023-12-28T06:12:23;4.53;;;1.90;;
80623;SDS011;70269;44.768;9.600;2023-12-28T06:14:49;5.32;;;2.38;;
80623;SDS011;70269;44.768;9.600;2023-12-28T06:17:14;4.53;;;1.90;;
80623;SDS011;70269;44.768;9.600;2023-12-28T06:19:44;6.57;;;2.38;;
80623;SDS011;70269;44.768;9.600;2023-12-28T06:22:09;4.70;;;2.08;;
80623;SDS011;70269;44.768;9.600;2023-12-28T06:24:38;5.63;;;1.80;;
80623;SDS011;70269;44.768;9.600;2023-12-28T06:27:05;4.90;;;1.65;;
80623;SDS011;70269;44.768;9.600;2023-12-28T06:29:31;4.57;;;1.80;;
80623;SDS011;70269;44.768;9.600;2023-12-28T06:31:56;4.95;;;2.10;;
80623;SDS011;70269;44.768;9.600;2023-12-28T06:34:22;4.65;;;2.45;;
80623;SDS011;70269;44.768;9.600;2023-12-28T06:36:47;5.13;;;2.22;;
80623;SDS011;70269;44.768;9.600;2023-12-28T06:39:13;3.95;;;1.75;;
80623;SDS011;70269;44.768;9.600;2023-12-28T06:41:39;4.20;;;1.95;;
80623;SDS011;70269;44.768;9.600;2023-12-28T06:44:04;4.50;;;1.95;;
80623;SDS011;70269;44.768;9.600;2023-12-28T06:46:30;4.47;;;1.90;;
80623;SDS011;70269;44.768;9.600;2023-12-28T06:48:55;5.22;;;1.90;;
80623;SDS011;70269;44.768;9.600;2023-12-28T06:51:23;4.03;;;1.88;;
80623;SDS011;70269;44.768;9.600;2023-12-28T06:53:48;4.07;;;1.80;;
80623;SDS011;70269;44.768;9.600;2023-12-28T06:56:14;5.50;;;1.83;;
80623;SDS011;70269;44.768;9.600;2023-12-28T06:58:40;5.63;;;2.45;;
80623;SDS011;70269;44.768;9.600;2023-12-28T07:01:06;4.07;;;1.60;;
80623;SDS011;70269;44.768;9.600;2023-12-28T07:03:32;4.63;;;1.90;;
80623;SDS011;70269;44.768;9.600;2023-12-28T07:05:58;4.50;;;1.88;;
80623;SDS011;70269;44.768;9.600;2023-12-28T07:08:24;4.88;;;1.98;;
80623;SDS011;70269;44.768;9.600;2023-12-28T07:10:50;4.15;;;1.60;;
80623;SDS011;70269;44.768;9.600;2023-12-28T07:13:16;6.78;;;1.63;;
80623;SDS011;70269;44.768;9.600;2023-12-28T07:15:41;4.65;;;2.08;;
80623;SDS011;70269;44.768;9.600;2023-12-28T07:18:07;4.85;;;2.55;;
80623;SDS011;70269;44.768;9.600;2023-12-28T07:20:32;5.28;;;2.15;;
80623;SDS011;70269;44.768;9.600;2023-12-28T07:22:58;4.03;;;1.88;;
80623;SDS011;70269;44.768;9.600;2023-12-28T07:25:24;5.53;;;2.95;;
80623;SDS011;70269;44.768;9.600;2023-12-28T07:27:49;5.18;;;1.73;;
80623;SDS011;70269;44.768;9.600;2023-12-28T07:30:15;3.55;;;1.80;;
80623;SDS011;70269;44.768;9.600;2023-12-28T07:32:42;13.45;;;3.53;;
80623;SDS011;70269;44.768;9.600;2023-12-28T07:35:08;6.47;;;2.08;;
80623;SDS011;70269;44.768;9.600;2023-12-28T07:37:34;5.97;;;2.70;;
80623;SDS011;70269;44.768;9.600;2023-12-28T07:40:01;4.20;;;1.77;;
80623;SDS011;70269;44.768;9.600;2023-12-28T07:42:28;4.28;;;1.88;;
80623;SDS011;70269;44.768;9.600;2023-12-28T07:44:54;4.05;;;1.95;;
80623;SDS011;70269;44.768;9.600;2023-12-28T07:47:20;4.68;;;1.98;;
80623;SDS011;70269;44.768;9.600;2023-12-28T07:49:45;4.55;;;1.90;;
80623;SDS011;70269;44.768;9.600;2023-12-28T07:52:11;3.97;;;2.15;;
80623;SDS011;70269;44.768;9.600;2023-12-28T07:54:36;6.28;;;2.38;;
80623;SDS011;70269;44.768;9.600;2023-12-28T07:57:02;3.83;;;2.05;;
80623;SDS011;70269;44.768;9.600;2023-12-28T07:59:28;5.57;;;2.90;;
80623;SDS011;70269;44.768;9.600;2023-12-28T08:01:53;3.92;;;1.77;;
80623;SDS011;70269;44.768;9.600;2023-12-28T08:04:20;5.35;;;2.00;;
80623;SDS011;70269;44.768;9.600;2023-12-28T08:06:46;6.20;;;2.65;;
80623;SDS011;70269;44.768;9.600;2023-12-28T08:09:11;4.20;;;1.90;;
80623;SDS011;70269;44.768;9.600;2023-12-28T08:11:37;3.17;;;1.65;;
80623;SDS011;70269;44.768;9.600;2023-12-28T08:14:02;4.60;;;1.75;;
80623;SDS011;70269;44.768;9.600;2023-12-28T08:16:28;5.07;;;1.55;;
80623;SDS011;70269;44.768;9.600;2023-12-28T08:18:54;3.95;;;1.98;;
80623;SDS011;70269;44.768;9.600;2023-12-28T08:21:20;4.90;;;2.35;;
80623;SDS011;70269;44.768;9.600;2023-12-28T08:23:45;6.00;;;2.35;;
80623;SDS011;70269;44.768;9.600;2023-12-28T08:26:11;3.67;;;2.00;;
80623;SDS011;70269;44.768;9.600;2023-12-28T08:28:36;3.78;;;1.80;;
80623;SDS011;70269;44.768;9.600;2023-12-28T08:31:02;6.00;;;2.15;;
80623;SDS011;70269;44.768;9.600;2023-12-28T08:33:28;4.95;;;2.03;;
80623;SDS011;70269;44.768;9.600;2023-12-28T08:35:53;5.95;;;2.10;;
80623;SDS011;70269;44.768;9.600;2023-12-28T08:38:19;4.20;;;1.80;;
80623;SDS011;70269;44.768;9.600;2023-12-28T08:40:45;6.72;;;1.77;;
80623;SDS011;70269;44.768;9.600;2023-12-28T08:43:11;3.85;;;1.60;;
80623;SDS011;70269;44.768;9.600;2023-12-28T08:45:36;3.88;;;1.65;;
80623;SDS011;70269;44.768;9.600;2023-12-28T08:48:02;4.40;;;2.20;;
80623;SDS011;70269;44.768;9.600;2023-12-28T08:50:28;6.75;;;2.10;;
80623;SDS011;70269;44.768;9.600;2023-12-28T08:52:54;3.88;;;1.73;;
80623;SDS011;70269;44.768;9.600;2023-12-28T08:55:20;5.25;;;1.92;;
80623;SDS011;70269;44.768;9.600;2023-12-28T08:57:46;6.32;;;1.80;;
80623;SDS011;70269;44.768;9.600;2023-12-28T09:00:13;3.30;;;1.60;;
80623;SDS011;70269;44.768;9.600;2023-12-28T09:02:40;3.67;;;1.83;;
80623;SDS011;70269;44.768;9.600;2023-12-28T09:05:06;4.03;;;2.00;;
80623;SDS011;70269;44.768;9.600;2023-12-28T09:07:32;4.53;;;1.90;;
80623;SDS011;70269;44.768;9.600;2023-12-28T09:09:58;3.22;;;1.80;;
80623;SDS011;70269;44.768;9.600;2023-12-28T09:12:23;8.95;;;2.10;;
80623;SDS011;70269;44.768;9.600;2023-12-28T09:14:49;5.05;;;1.67;;
80623;SDS011;70269;44.768;9.600;2023-12-28T09:17:18;4.90;;;1.98;;
80623;SDS011;70269;44.768;9.600;2023-12-28T09:19:46;5.50;;;1.80;;
80623;SDS011;70269;44.768;9.600;2023-12-28T09:22:12;5.38;;;1.80;;
80623;SDS011;70269;44.768;9.600;2023-12-28T09:24:37;5.93;;;1.80;;
80623;SDS011;70269;44.768;9.600;2023-12-28T09:27:03;4.25;;;2.45;;
80623;SDS011;70269;44.768;9.600;2023-12-28T09:29:28;8.00;;;3.25;;
80623;SDS011;70269;44.768;9.600;2023-12-28T09:31:54;5.93;;;3.10;;
80623;SDS011;70269;44.768;9.600;2023-12-28T09:34:20;6.28;;;2.92;;
80623;SDS011;70269;44.768;9.600;2023-12-28T09:36:45;5.93;;;3.05;;
80623;SDS011;70269;44.768;9.600;2023-12-28T09:39:11;6.22;;;3.70;;
80623;SDS011;70269;44.768;9.600;2023-12-28T09:41:39;8.10;;;4.28;;
80623;SDS011;70269;44.768;9.600;2023-12-28T09:44:08;5.55;;;3.15;;
80623;SDS011;70269;44.768;9.600;2023-12-28T09:46:37;7.32;;;3.75;;
80623;SDS011;70269;44.768;9.600;2023-12-28T09:49:06;9.45;;;4.20;;
80623;SDS011;70269;44.768;9.600;2023-12-28T09:51:32;8.38;;;4.78;;
80623;SDS011;70269;44.768;9.600;2023-12-28T09:53:58;8.55;;;3.40;;
80623;SDS011;70269;44.768;9.600;2023-12-28T09:56:23;5.78;;;3.13;;
80623;SDS011;70269;44.768;9.600;2023-12-28T09:58:50;6.25;;;3.50;;
80623;SDS011;70269;44.768;9.600;2023-12-28T10:01:16;5.63;;;3.38;;
80623;SDS011;70269;44.768;9.600;2023-12-28T10:03:43;6.78;;;3.35;;
80623;SDS011;70269;44.768;9.600;2023-12-28T10:06:09;7.40;;;3.55;;
80623;SDS011;70269;44.768;9.600;2023-12-28T10:08:35;5.93;;;3.33;;
80623;SDS011;70269;44.768;9.600;2023-12-28T10:11:02;7.78;;;4.18;;
80623;SDS011;70269;44.768;9.600;2023-12-28T10:13:28;9.63;;;4.25;;
80623;SDS011;70269;44.768;9.600;2023-12-28T10:15:58;7.75;;;3.58;;
80623;SDS011;70269;44.768;9.600;2023-12-28T10:18:24;9.20;;;4.35;;
80623;SDS011;70269;44.768;9.600;2023-12-28T10:20:50;10.70;;;3.75;;
80623;SDS011;70269;44.768;9.600;2023-12-28T10:23:20;8.48;;;4.05;;
80623;SDS011;70269;44.768;9.600;2023-12-28T10:25:46;9.32;;;4.22;;
80623;SDS011;70269;44.768;9.600;2023-12-28T10:28:15;9.98;;;4.03;;
80623;SDS011;70269;44.768;9.600;2023-12-28T10:30:44;11.52;;;4.63;;
80623;SDS011;70269;44.768;9.600;2023-12-28T10:33:09;10.77;;;5.30;;
80623;SDS011;70269;44.768;9.600;2023-12-28T10:35:35;7.47;;;4.35;;
80623;SDS011;70269;44.768;9.600;2023-12-28T10:38:00;10.68;;;4.10;;
80623;SDS011;70269;44.768;9.600;2023-12-28T10:40:28;9.38;;;3.40;;
80623;SDS011;70269;44.768;9.600;2023-12-28T10:45:26;6.95;;;3.30;;
80623;SDS011;70269;44.768;9.600;2023-12-28T10:48:04;9.13;;;4.10;;
80623;SDS011;70269;44.768;9.600;2023-12-28T10:50:51;7.40;;;3.65;;
80623;SDS011;70269;44.768;9.600;2023-12-28T10:58:45;6.15;;;3.05;;
80623;SDS011;70269;44.768;9.600;2023-12-28T11:01:15;8.65;;;4.40;;
80623;SDS011;70269;44.768;9.600;2023-12-28T11:06:33;9.73;;;4.28;;
80623;SDS011;70269;44.768;9.600;2023-12-28T11:09:00;5.93;;;3.30;;
80623;SDS011;70269;44.768;9.600;2023-12-28T11:11:26;8.10;;;4.30;;
80623;SDS011;70269;44.768;9.600;2023-12-28T11:13:57;8.93;;;4.43;;
80623;SDS011;70269;44.768;9.600;2023-12-28T11:16:25;6.15;;;3.45;;
80623;SDS011;70269;44.768;9.600;2023-12-28T11:18:52;16.02;;;5.28;;
80623;SDS011;70269;44.768;9.600;2023-12-28T11:21:19;8.93;;;4.00;;
80623;SDS011;70269;44.768;9.600;2023-12-28T11:23:46;10.77;;;4.00;;
80623;SDS011;70269;44.768;9.600;2023-12-28T11:26:17;9.70;;;5.18;;
80623;SDS011;70269;44.768;9.600;2023-12-28T11:28:43;7.70;;;4.47;;
80623;SDS011;70269;44.768;9.600;2023-12-28T11:31:15;9.88;;;4.32;;
80623;SDS011;70269;44.768;9.600;2023-12-28T11:33:46;8.15;;;4.35;;
80623;SDS011;70269;44.768;9.600;2023-12-28T11:36:19;12.68;;;5.30;;
80623;SDS011;70269;44.768;9.600;2023-12-28T11:38:50;8.95;;;4.50;;
80623;SDS011;70269;44.768;9.600;2023-12-28T11:41:20;8.13;;;4.25;;
80623;SDS011;70269;44.768;9.600;2023-12-28T11:43:51;6.28;;;3.63;;
80623;SDS011;70269;44.768;9.600;2023-12-28T11:46:18;9.85;;;5.72;;
80623;SDS011;70269;44.768;9.600;2023-12-28T11:48:44;11.60;;;4.95;;
80623;SDS011;70269;44.768;9.600;2023-12-28T11:51:10;10.75;;;5.50;;
80623;SDS011;70269;44.768;9.600;2023-12-28T11:53:36;13.18;;;5.07;;
80623;SDS011;70269;44.768;9.600;2023-12-28T11:56:02;10.25;;;4.82;;
80623;SDS011;70269;44.768;9.600;2023-12-28T11:58:28;9.38;;;4.40;;
80623;SDS011;70269;44.768;9.600;2023-12-28T12:00:54;9.15;;;4.63;;
80623;SDS011;70269;44.768;9.600;2023-12-28T12:03:19;11.18;;;5.30;;
80623;SDS011;70269;44.768;9.600;2023-12-28T12:05:45;9.48;;;5.20;;
80623;SDS011;70269;44.768;9.600;2023-12-28T12:08:10;8.50;;;4.90;;
80623;SDS011;70269;44.768;9.600;2023-12-28T12:10:39;10.45;;;5.35;;
80623;SDS011;70269;44.768;9.600;2023-12-28T12:13:08;8.57;;;4.63;;
80623;SDS011;70269;44.768;9.600;2023-12-28T12:15:34;9.60;;;3.90;;
80623;SDS011;70269;44.768;9.600;2023-12-28T12:18:00;10.43;;;5.72;;
80623;SDS011;70269;44.768;9.600;2023-12-28T12:20:26;10.68;;;5.28;;
80623;SDS011;70269;44.768;9.600;2023-12-28T12:22:57;10.25;;;4.47;;
80623;SDS011;70269;44.768;9.600;2023-12-28T12:25:23;9.05;;;4.53;;
80623;SDS011;70269;44.768;9.600;2023-12-28T12:27:49;8.93;;;4.72;;
80623;SDS011;70269;44.768;9.600;2023-12-28T12:30:15;9.00;;;4.93;;
80623;SDS011;70269;44.768;9.600;2023-12-28T12:32:40;11.00;;;5.35;;
80623;SDS011;70269;44.768;9.600;2023-12-28T12:35:11;9.20;;;4.65;;
80623;SDS011;70269;44.768;9.600;2023-12-28T12:37:37;8.18;;;4.07;;
80623;SDS011;70269;44.768;9.600;2023-12-28T12:40:03;11.48;;;5.43;;
80623;SDS011;70269;44.768;9.600;2023-12-28T12:42:31;10.43;;;5.72;;
80623;SDS011;70269;44.768;9.600;2023-12-28T12:44:58;10.23;;;3.75;;
80623;SDS011;70269;44.768;9.600;2023-12-28T12:47:23;9.68;;;4.18;;
80623;SDS011;70269;44.768;9.600;2023-12-28T12:49:51;8.18;;;3.85;;
80623;SDS011;70269;44.768;9.600;2023-12-28T12:52:17;8.98;;;4.20;;
80623;SDS011;70269;44.768;9.600;2023-12-28T12:54:42;8.93;;;5.07;;
80623;SDS011;70269;44.768;9.600;2023-12-28T12:57:08;16.40;;;11.25;;
80623;SDS011;70269;44.768;9.600;2023-12-28T12:59:34;13.50;;;9.88;;
80623;SDS011;70269;44.768;9.600;2023-12-28T13:02:00;29.90;;;20.73;;
80623;SDS011;70269;44.768;9.600;2023-12-28T13:04:26;15.63;;;9.20;;
80623;SDS011;70269;44.768;9.600;2023-12-28T13:06:52;13.98;;;8.95;;
80623;SDS011;70269;44.768;9.600;2023-12-28T13:09:17;12.48;;;6.43;;
80623;SDS011;70269;44.768;9.600;2023-12-28T13:11:43;22.90;;;11.52;;
80623;SDS011;70269;44.768;9.600;2023-12-28T13:14:09;13.07;;;8.05;;
80623;SDS011;70269;44.768;9.600;2023-12-28T13:16:34;13.93;;;7.38;;
80623;SDS011;70269;44.768;9.600;2023-12-28T13:19:00;11.73;;;6.43;;
80623;SDS011;70269;44.768;9.600;2023-12-28T13:21:26;13.75;;;7.55;;
80623;SDS011;70269;44.768;9.600;2023-12-28T13:23:51;8.73;;;5.63;;
80623;SDS011;70269;44.768;9.600;2023-12-28T13:26:17;15.45;;;8.43;;
80623;SDS011;70269;44.768;9.600;2023-12-28T13:28:42;17.95;;;8.13;;
80623;SDS011;70269;44.768;9.600;2023-12-28T13:31:08;12.65;;;6.85;;
80623;SDS011;70269;44.768;9.600;2023-12-28T13:33:34;13.60;;;8.27;;
80623;SDS011;70269;44.768;9.600;2023-12-28T13:35:59;14.07;;;7.63;;
80623;SDS011;70269;44.768;9.600;2023-12-28T13:38:25;12.82;;;6.90;;
80623;SDS011;70269;44.768;9.600;2023-12-28T13:40:51;10.40;;;5.30;;
80623;SDS011;70269;44.768;9.600;2023-12-28T13:43:16;16.13;;;7.40;;
80623;SDS011;70269;44.768;9.600;2023-12-28T13:45:42;14.60;;;7.97;;
80623;SDS011;70269;44.768;9.600;2023-12-28T13:48:08;10.80;;;5.55;;
80623;SDS011;70269;44.768;9.600;2023-12-28T13:50:34;12.25;;;6.50;;
80623;SDS011;70269;44.768;9.600;2023-12-28T13:52:59;9.60;;;5.25;;
80623;SDS011;70269;44.768;9.600;2023-12-28T13:55:25;17.45;;;8.65;;
80623;SDS011;70269;44.768;9.600;2023-12-28T13:57:53;14.93;;;7.35;;
80623;SDS011;70269;44.768;9.600;2023-12-28T14:00:18;15.55;;;9.27;;
80623;SDS011;70269;44.768;9.600;2023-12-28T14:02:44;14.70;;;7.68;;
80623;SDS011;70269;44.768;9.600;2023-12-28T14:05:10;15.65;;;9.75;;
80623;SDS011;70269;44.768;9.600;2023-12-28T14:07:35;18.60;;;10.35;;
80623;SDS011;70269;44.768;9.600;2023-12-28T14:10:01;17.45;;;8.93;;
80623;SDS011;70269;44.768;9.600;2023-12-28T14:12:27;10.98;;;6.68;;
80623;SDS011;70269;44.768;9.600;2023-12-28T14:14:52;16.88;;;9.73;;
80623;SDS011;70269;44.768;9.600;2023-12-28T14:17:18;17.58;;;8.65;;
80623;SDS011;70269;44.768;9.600;2023-12-28T14:19:47;20.55;;;10.20;;
80623;SDS011;70269;44.768;9.600;2023-12-28T14:22:12;19.70;;;10.95;;
80623;SDS011;70269;44.768;9.600;2023-12-28T14:24:38;21.00;;;10.55;;
80623;SDS011;70269;44.768;9.600;2023-12-28T14:27:04;20.92;;;10.85;;
80623;SDS011;70269;44.768;9.600;2023-12-28T14:29:30;17.77;;;9.35;;
80623;SDS011;70269;44.768;9.600;2023-12-28T14:31:56;17.30;;;8.52;;
80623;SDS011;70269;44.768;9.600;2023-12-28T14:34:22;16.17;;;9.32;;
80623;SDS011;70269;44.768;9.600;2023-12-28T14:36:48;22.25;;;10.68;;
80623;SDS011;70269;44.768;9.600;2023-12-28T14:39:17;17.25;;;9.73;;
80623;SDS011;70269;44.768;9.600;2023-12-28T14:41:46;19.60;;;11.32;;
80623;SDS011;70269;44.768;9.600;2023-12-28T14:44:11;20.65;;;10.68;;
80623;SDS011;70269;44.768;9.600;2023-12-28T14:46:37;16.70;;;9.75;;
80623;SDS011;70269;44.768;9.600;2023-12-28T14:49:03;14.40;;;7.57;;
80623;SDS011;70269;44.768;9.600;2023-12-28T14:51:29;15.23;;;7.38;;
80623;SDS011;70269;44.768;9.600;2023-12-28T14:53:55;14.88;;;8.13;;
80623;SDS011;70269;44.768;9.600;2023-12-28T14:56:21;17.50;;;9.48;;
80623;SDS011;70269;44.768;9.600;2023-12-28T14:58:46;21.67;;;11.50;;
80623;SDS011;70269;44.768;9.600;2023-12-28T15:01:15;26.15;;;11.93;;
80623;SDS011;70269;44.768;9.600;2023-12-28T15:03:42;19.65;;;10.80;;